createdAt,value
2022-12-26T00:01:47.219Z,8.90
2022-12-26T00:04:52.377Z,8.90
2022-12-26T00:07:01.513Z,8.90
2022-12-26T00:09:28.372Z,8.90
2022-12-26T00:11:55.275Z,8.90
2022-12-26T00:14:22.109Z,8.90
2022-12-26T00:16:49.095Z,8.90
2022-12-26T00:19:16.145Z,8.90
2022-12-26T00:21:43.124Z,8.90
2022-12-26T00:24:11.982Z,8.90
2022-12-26T00:26:39.122Z,8.80
2022-12-26T00:29:06.317Z,9.00
2022-12-26T00:31:35.336Z,9.00
2022-12-26T00:34:03.409Z,9.00
2022-12-26T00:36:32.568Z,9.00
2022-12-26T00:39:01.637Z,9.00
2022-12-26T00:41:29.412Z,9.00
2022-12-26T00:43:56.495Z,9.00
2022-12-26T00:46:25.061Z,9.00
2022-12-26T00:48:52.194Z,8.90
2022-12-26T00:51:19.371Z,9.00
2022-12-26T00:53:46.413Z,9.00
2022-12-26T00:56:13.632Z,9.00
2022-12-26T00:58:42.051Z,9.00
2022-12-26T01:01:21.223Z,9.00
2022-12-26T01:03:51.505Z,9.00
2022-12-26T01:06:18.812Z,9.00
2022-12-26T01:08:45.737Z,9.00
2022-12-26T01:11:14.377Z,9.00
2022-12-26T01:13:42.131Z,9.00
2022-12-26T01:16:09.388Z,9.00
2022-12-26T01:18:36.494Z,9.00
2022-12-26T01:21:09.004Z,9.00
2022-12-26T01:23:35.992Z,9.00
2022-12-26T01:26:18.611Z,9.00
2022-12-26T01:28:51.587Z,9.00
2022-12-26T01:31:19.298Z,9.00
2022-12-26T01:33:46.743Z,9.00
2022-12-26T01:36:13.681Z,9.00
2022-12-26T01:38:40.545Z,9.00
2022-12-26T01:41:16.709Z,9.10
2022-12-26T01:43:58.245Z,9.00
2022-12-26T01:46:44.742Z,9.00
2022-12-26T01:49:50.167Z,9.00
2022-12-26T01:52:37.022Z,9.00
2022-12-26T01:55:07.788Z,9.00
2022-12-26T01:57:47.560Z,9.00
2022-12-26T02:00:15.102Z,9.10
2022-12-26T02:03:02.391Z,9.10
2022-12-26T02:05:34.319Z,9.10
2022-12-26T02:08:07.129Z,9.20
2022-12-26T02:10:41.767Z,9.20
2022-12-26T02:13:11.542Z,9.20
2022-12-26T02:15:39.835Z,9.20
2022-12-26T02:18:06.825Z,9.30
2022-12-26T02:20:56.857Z,9.20
2022-12-26T02:23:36.342Z,9.30
2022-12-26T02:26:18.389Z,9.30
2022-12-26T02:29:03.915Z,9.30
2022-12-26T02:32:02.230Z,9.30
2022-12-26T02:35:01.461Z,9.30
2022-12-26T02:37:59.602Z,9.40
2022-12-26T02:40:46.395Z,9.40
2022-12-26T02:43:28.354Z,9.40
2022-12-26T02:46:36.160Z,9.30
2022-12-26T02:49:58.097Z,9.40
2022-12-26T02:53:01.015Z,9.40
2022-12-26T02:55:47.991Z,9.40
2022-12-26T02:58:55.277Z,9.40
2022-12-26T03:01:52.990Z,9.40
2022-12-26T03:04:41.664Z,9.40
2022-12-26T03:07:35.147Z,9.40
2022-12-26T03:10:24.667Z,9.40
2022-12-26T03:13:11.533Z,9.40
2022-12-26T03:16:23.877Z,9.40
2022-12-26T03:18:57.813Z,9.40
2022-12-26T03:21:33.890Z,9.50
2022-12-26T03:24:00.815Z,9.50
2022-12-26T03:26:39.696Z,9.60
2022-12-26T03:29:34.325Z,9.50
2022-12-26T03:32:03.549Z,9.50
2022-12-26T03:34:30.439Z,9.50
2022-12-26T03:37:55.889Z,9.50
2022-12-26T03:41:05.472Z,9.50
2022-12-26T03:44:06.572Z,9.60
2022-12-26T03:47:09.350Z,9.50
2022-12-26T03:50:15.289Z,9.50
2022-12-26T03:53:39.300Z,9.50
2022-12-26T03:56:27.662Z,9.60
2022-12-26T03:59:27.359Z,9.50
2022-12-26T04:02:15.591Z,9.50
2022-12-26T04:05:04.689Z,9.50
2022-12-26T04:07:56.481Z,9.50
2022-12-26T04:10:58.927Z,9.50
2022-12-26T04:14:14.475Z,9.50
2022-12-26T04:17:19.218Z,9.50
2022-12-26T04:20:01.938Z,9.60
2022-12-26T04:22:47.373Z,9.50
2022-12-26T04:25:48.476Z,9.60
2022-12-26T04:28:37.450Z,9.60
2022-12-26T04:31:35.626Z,9.60
2022-12-26T04:34:25.227Z,9.60
2022-12-26T04:37:17.104Z,9.60
2022-12-26T04:40:06.473Z,9.60
2022-12-26T04:42:53.365Z,9.60
2022-12-26T04:45:21.791Z,9.60
2022-12-26T04:48:09.643Z,9.60
2022-12-26T04:50:36.955Z,9.60
2022-12-26T04:53:04.001Z,9.50
2022-12-26T04:55:32.828Z,9.60
2022-12-26T04:58:00.267Z,9.60
2022-12-26T05:00:28.669Z,9.60
2022-12-26T05:03:19.132Z,9.70
2022-12-26T05:06:15.037Z,9.70
2022-12-26T05:09:03.118Z,9.70
2022-12-26T05:11:31.956Z,9.70
2022-12-26T05:13:59.882Z,9.70
2022-12-26T05:16:46.528Z,9.80
2022-12-26T05:19:34.595Z,9.90
2022-12-26T05:22:22.323Z,9.90
2022-12-26T05:25:08.237Z,10.00
2022-12-26T05:27:59.615Z,10.10
2022-12-26T05:30:26.674Z,10.10
2022-12-26T05:33:11.862Z,10.10
2022-12-26T05:35:39.675Z,10.20
2022-12-26T05:38:06.504Z,10.20
2022-12-26T05:40:33.401Z,10.10
2022-12-26T05:43:00.220Z,10.20
2022-12-26T05:45:27.104Z,10.20
2022-12-26T05:48:00.859Z,10.30
2022-12-26T05:50:28.317Z,10.20
2022-12-26T05:52:58.018Z,10.20
2022-12-26T05:55:24.937Z,10.20
2022-12-26T05:57:52.292Z,10.10
2022-12-26T06:00:19.392Z,10.10
2022-12-26T06:02:46.390Z,10.10
2022-12-26T06:05:13.342Z,10.10
2022-12-26T06:07:40.105Z,10.00
2022-12-26T06:10:07.182Z,10.10
2022-12-26T06:12:34.851Z,10.10
2022-12-26T06:15:01.940Z,10.00
2022-12-26T06:17:28.862Z,10.00
2022-12-26T06:19:55.744Z,9.90
2022-12-26T06:22:22.727Z,10.00
2022-12-26T06:24:49.598Z,9.90
2022-12-26T06:27:16.492Z,9.90
2022-12-26T06:29:43.319Z,9.90
2022-12-26T06:32:10.101Z,9.90
2022-12-26T06:34:36.839Z,9.90
2022-12-26T06:37:03.604Z,10.00
2022-12-26T06:39:30.379Z,9.90
2022-12-26T06:41:57.170Z,9.90
2022-12-26T06:44:23.948Z,9.80
2022-12-26T06:46:51.685Z,9.80
2022-12-26T06:49:18.558Z,9.80
2022-12-26T06:51:45.418Z,9.80
2022-12-26T06:54:12.249Z,9.80
2022-12-26T06:56:39.051Z,9.90
2022-12-26T06:59:06.556Z,9.80
2022-12-26T07:01:34.798Z,9.90
2022-12-26T07:04:02.245Z,9.90
2022-12-26T07:06:34.260Z,9.90
2022-12-26T07:09:08.005Z,9.90
2022-12-26T07:11:37.121Z,9.80
2022-12-26T07:14:04.383Z,9.90
2022-12-26T07:16:31.580Z,9.80
2022-12-26T07:18:59.477Z,9.90
2022-12-26T07:21:27.773Z,9.90
2022-12-26T07:23:55.172Z,9.90
2022-12-26T07:26:22.913Z,9.90
2022-12-26T07:28:53.910Z,9.90
2022-12-26T07:31:21.084Z,9.90
2022-12-26T07:33:51.644Z,9.80
2022-12-26T07:36:19.619Z,9.80
2022-12-26T07:38:46.673Z,9.80
2022-12-26T07:41:33.488Z,9.80
2022-12-26T07:44:00.352Z,9.80
2022-12-26T07:46:27.109Z,9.90
2022-12-26T07:48:54.064Z,9.90
2022-12-26T07:51:21.483Z,9.90
2022-12-26T07:53:48.850Z,10.00
2022-12-26T07:56:16.390Z,10.00
2022-12-26T07:58:43.258Z,10.10
2022-12-26T08:01:10.480Z,10.20
2022-12-26T08:03:38.374Z,10.10
2022-12-26T08:06:05.485Z,10.10
2022-12-26T08:08:32.380Z,10.10
2022-12-26T08:11:04.393Z,10.10
2022-12-26T08:13:31.474Z,10.10
2022-12-26T08:15:58.657Z,10.10
2022-12-26T08:18:26.432Z,10.10
2022-12-26T08:20:53.510Z,10.10
2022-12-26T08:23:20.560Z,10.10
2022-12-26T08:25:47.440Z,10.10
2022-12-26T08:28:14.238Z,10.10
2022-12-26T08:30:41.557Z,10.10
2022-12-26T08:33:10.049Z,10.00
2022-12-26T08:35:39.062Z,10.00
2022-12-26T08:38:06.614Z,10.00
2022-12-26T08:40:42.960Z,10.00
2022-12-26T08:46:08.539Z,10.10
2022-12-26T08:48:37.643Z,10.00
2022-12-26T08:51:14.502Z,10.00
2022-12-26T09:10:45.830Z,10.20
2022-12-26T09:13:12.776Z,10.20
2022-12-26T09:15:39.622Z,10.20
2022-12-26T09:18:07.830Z,10.20
2022-12-26T09:24:22.467Z,10.30
2022-12-26T09:26:49.237Z,10.40
2022-12-26T09:29:16.054Z,10.40
2022-12-26T09:31:43.004Z,10.50
2022-12-26T09:34:10.083Z,10.60
2022-12-26T09:36:38.718Z,10.60
2022-12-26T09:39:06.449Z,10.60
2022-12-26T09:41:44.988Z,10.60
2022-12-26T09:44:35.752Z,10.60
2022-12-26T09:47:05.558Z,10.70
2022-12-26T09:49:53.089Z,10.80
2022-12-26T09:52:24.404Z,10.80
2022-12-26T09:54:54.657Z,10.80
2022-12-26T09:57:38.049Z,10.90
2022-12-26T10:00:07.004Z,10.80
2022-12-26T10:02:39.623Z,10.80
2022-12-26T10:05:07.103Z,10.90
2022-12-26T10:07:46.339Z,10.90
2022-12-26T10:10:14.182Z,10.90
2022-12-26T10:12:55.149Z,10.90
2022-12-26T10:16:02.695Z,10.90
2022-12-26T10:18:35.699Z,10.90
2022-12-26T10:21:32.134Z,10.90
2022-12-26T10:24:04.008Z,10.90
2022-12-26T10:26:36.625Z,10.90
2022-12-26T10:29:09.634Z,10.90
2022-12-26T10:31:42.006Z,10.80
2022-12-26T10:34:11.980Z,10.80
2022-12-26T10:36:47.035Z,10.80
2022-12-26T10:39:26.252Z,10.80
2022-12-26T10:42:19.151Z,10.80
2022-12-26T10:44:46.005Z,10.70
2022-12-26T10:47:27.950Z,10.70
2022-12-26T10:49:54.886Z,10.70
2022-12-26T10:52:27.096Z,10.70
2022-12-26T10:55:28.599Z,10.70
2022-12-26T10:57:51.280Z,10.70
2022-12-26T11:00:27.169Z,10.70
2022-12-26T11:03:07.704Z,10.60
2022-12-26T11:06:09.783Z,10.60
2022-12-26T11:08:47.651Z,10.60
2022-12-26T11:11:24.596Z,10.60
2022-12-26T11:14:01.898Z,10.60
2022-12-26T11:16:38.427Z,10.60
2022-12-26T11:19:05.936Z,10.50
2022-12-26T11:21:33.907Z,10.50
2022-12-26T11:24:09.887Z,10.50
2022-12-26T11:26:38.775Z,10.40
2022-12-26T11:29:11.676Z,10.40
2022-12-26T11:31:57.195Z,10.40
2022-12-26T11:34:36.469Z,10.40
2022-12-26T11:37:06.012Z,10.40
2022-12-26T11:39:36.594Z,10.40
2022-12-26T11:42:19.357Z,10.40
2022-12-26T11:44:49.628Z,10.40
2022-12-26T11:47:27.068Z,10.50
2022-12-26T11:50:01.533Z,10.50
2022-12-26T11:52:34.761Z,10.40
2022-12-26T11:55:01.949Z,10.50
2022-12-26T11:57:32.092Z,10.50
2022-12-26T12:00:22.023Z,10.50
2022-12-26T12:02:49.192Z,10.50
2022-12-26T12:05:28.344Z,10.50
2022-12-26T12:08:14.872Z,10.40
2022-12-26T12:10:48.660Z,10.50
2022-12-26T12:13:50.175Z,10.50
2022-12-26T12:16:38.763Z,10.50
2022-12-26T12:19:30.042Z,10.50
2022-12-26T12:22:25.029Z,10.50
2022-12-26T12:25:16.305Z,10.40
2022-12-26T12:27:56.081Z,10.40
2022-12-26T12:30:30.798Z,10.40
2022-12-26T12:33:28.943Z,10.40
2022-12-26T12:36:30.885Z,10.50
2022-12-26T12:39:16.244Z,10.50
2022-12-26T12:41:57.996Z,10.50
2022-12-26T12:44:55.423Z,10.50
2022-12-26T12:47:40.129Z,10.50
2022-12-26T12:50:56.891Z,10.50
2022-12-26T12:53:44.850Z,10.50
2022-12-26T12:56:27.898Z,10.50
2022-12-26T12:58:54.844Z,10.50
2022-12-26T13:01:24.802Z,10.50
2022-12-26T13:03:59.014Z,10.50
2022-12-26T13:06:41.548Z,10.60
2022-12-26T13:09:19.628Z,10.60
2022-12-26T13:12:00.702Z,10.60
2022-12-26T13:14:37.021Z,10.60
2022-12-26T13:17:22.248Z,10.60
2022-12-26T13:20:01.724Z,10.60
2022-12-26T13:22:57.235Z,10.60
2022-12-26T13:25:41.835Z,10.60
2022-12-26T13:28:17.683Z,10.60
2022-12-26T13:30:44.661Z,10.60
2022-12-26T13:33:14.969Z,10.60
2022-12-26T13:36:05.452Z,10.60
2022-12-26T13:39:04.509Z,10.60
2022-12-26T13:41:50.757Z,10.70
2022-12-26T13:44:20.421Z,10.60
2022-12-26T13:46:47.235Z,10.60
2022-12-26T13:49:38.693Z,10.50
2022-12-26T13:52:11.783Z,10.50
2022-12-26T13:55:13.880Z,10.40
2022-12-26T13:57:44.710Z,10.40
2022-12-26T14:00:38.296Z,10.40
2022-12-26T14:03:46.930Z,10.30
2022-12-26T14:06:36.032Z,10.20
2022-12-26T14:09:02.902Z,10.20
2022-12-26T14:11:44.650Z,10.10
2022-12-26T14:14:29.730Z,10.10
2022-12-26T14:17:17.843Z,10.10
2022-12-26T14:20:23.385Z,10.10
2022-12-26T14:23:07.203Z,10.00
2022-12-26T14:26:16.776Z,9.90
2022-12-26T14:29:22.551Z,9.80
2022-12-26T14:32:13.373Z,9.70
2022-12-26T14:34:58.256Z,9.60
2022-12-26T14:37:57.286Z,9.50
2022-12-26T14:40:35.304Z,9.50
2022-12-26T14:43:10.931Z,9.40
2022-12-26T14:45:38.193Z,9.40
2022-12-26T14:48:17.011Z,9.30
2022-12-26T14:50:50.883Z,9.30
2022-12-26T14:53:28.991Z,9.30
2022-12-26T14:56:08.123Z,9.30
2022-12-26T14:58:38.283Z,9.30
2022-12-26T15:01:15.412Z,9.40
2022-12-26T15:04:09.718Z,9.40
2022-12-26T15:06:50.791Z,9.40
2022-12-26T15:09:26.929Z,9.40
2022-12-26T15:12:12.597Z,9.40
2022-12-26T15:15:40.863Z,9.40
2022-12-26T15:18:43.305Z,9.40
2022-12-26T15:21:30.827Z,9.50
2022-12-26T15:24:45.461Z,9.40
2022-12-26T15:27:39.255Z,9.50
2022-12-26T15:30:53.569Z,9.50
2022-12-26T15:33:36.292Z,9.40
2022-12-26T15:36:46.414Z,9.50
2022-12-26T15:39:25.546Z,9.40
2022-12-26T15:42:14.301Z,9.40
2022-12-26T15:45:05.729Z,9.30
2022-12-26T15:47:58.265Z,9.20
2022-12-26T15:50:50.142Z,9.20
2022-12-26T15:53:32.026Z,9.20
2022-12-26T15:56:23.817Z,9.10
2022-12-26T15:59:29.677Z,9.00
2022-12-26T16:01:58.338Z,9.00
2022-12-26T16:04:41.721Z,9.00
2022-12-26T16:07:26.759Z,9.10
2022-12-26T16:09:55.388Z,9.10
2022-12-26T16:12:29.330Z,9.10
2022-12-26T16:15:11.266Z,9.20
2022-12-26T16:17:39.375Z,9.20
2022-12-26T16:20:41.526Z,9.20
2022-12-26T16:23:17.419Z,9.20
2022-12-26T16:25:53.658Z,9.10
2022-12-26T16:28:28.176Z,9.20
2022-12-26T16:30:56.730Z,9.20
2022-12-26T16:33:23.605Z,9.20
2022-12-26T16:35:56.177Z,9.30
2022-12-26T16:38:29.972Z,9.30
2022-12-26T16:40:58.023Z,9.30
2022-12-26T16:43:26.460Z,9.30
2022-12-26T16:45:58.747Z,9.30
2022-12-26T16:48:28.192Z,9.30
2022-12-26T16:51:07.555Z,9.30
2022-12-26T16:53:40.375Z,9.30
2022-12-26T16:56:27.937Z,9.30
2022-12-26T16:59:17.876Z,9.30
2022-12-26T17:01:55.603Z,9.20
2022-12-26T17:04:28.428Z,9.30
2022-12-26T17:07:00.439Z,9.30
2022-12-26T17:09:30.560Z,9.30
2022-12-26T17:12:03.675Z,9.20
2022-12-26T17:14:41.447Z,9.30
2022-12-26T17:17:23.557Z,9.20
2022-12-26T17:19:54.303Z,9.20
2022-12-26T17:22:27.910Z,9.10
2022-12-26T17:25:17.819Z,9.00
2022-12-26T17:27:45.974Z,8.80
2022-12-26T17:30:30.475Z,8.70
2022-12-26T17:33:04.078Z,8.60
2022-12-26T17:35:47.111Z,8.50
2022-12-26T17:38:23.304Z,8.40
2022-12-26T17:40:53.890Z,8.40
2022-12-26T17:43:24.531Z,8.30
2022-12-26T17:45:51.924Z,8.30
2022-12-26T17:48:19.179Z,8.30
2022-12-26T17:50:49.514Z,8.20
2022-12-26T17:53:35.067Z,8.20
2022-12-26T17:56:06.156Z,8.40
2022-12-26T17:58:34.312Z,8.50
2022-12-26T18:01:01.228Z,8.60
2022-12-26T18:03:28.346Z,8.60
2022-12-26T18:05:58.796Z,8.60
2022-12-26T18:08:39.795Z,8.60
2022-12-26T18:11:10.169Z,8.60
2022-12-26T18:13:37.496Z,8.60
2022-12-26T18:16:05.585Z,8.50
2022-12-26T18:18:39.894Z,8.50
2022-12-26T18:21:09.147Z,8.50
2022-12-26T18:23:37.244Z,8.40
2022-12-26T18:26:14.835Z,8.30
2022-12-26T18:28:41.590Z,8.20
2022-12-26T18:31:14.042Z,8.10
2022-12-26T18:33:41.102Z,8.00
2022-12-26T18:36:14.537Z,7.90
2022-12-26T18:38:41.928Z,7.80
2022-12-26T18:41:17.622Z,7.80
2022-12-26T18:43:44.898Z,7.80
2022-12-26T18:46:23.256Z,7.60
2022-12-26T18:48:54.065Z,7.50
2022-12-26T18:51:21.573Z,7.50
2022-12-26T18:53:48.993Z,7.60
2022-12-26T18:56:20.936Z,7.50
2022-12-26T18:58:55.540Z,7.50
2022-12-26T19:01:25.091Z,7.60
2022-12-26T19:03:53.681Z,7.60
2022-12-26T19:06:25.318Z,7.60
2022-12-26T19:08:52.135Z,7.60
2022-12-26T19:11:18.977Z,7.60
2022-12-26T19:13:45.916Z,7.60
2022-12-26T19:16:13.838Z,7.60
2022-12-26T19:18:41.049Z,7.60
2022-12-26T19:21:16.166Z,7.60
2022-12-26T19:23:46.898Z,7.60
2022-12-26T19:26:17.084Z,7.50
2022-12-26T19:28:44.276Z,7.60
2022-12-26T19:31:15.107Z,7.50
2022-12-26T19:33:42.462Z,7.40
2022-12-26T19:36:10.246Z,7.40
2022-12-26T19:38:40.468Z,7.30
2022-12-26T19:41:13.764Z,7.20
2022-12-26T19:43:41.563Z,7.20
2022-12-26T19:46:12.045Z,7.10
2022-12-26T19:48:39.587Z,7.10
2022-12-26T19:51:12.712Z,7.00
2022-12-26T19:53:40.368Z,6.90
2022-12-26T19:56:13.207Z,6.90
2022-12-26T19:58:40.898Z,7.00
2022-12-26T20:01:16.064Z,7.00
2022-12-26T20:03:44.920Z,6.90
2022-12-26T20:06:16.371Z,6.90
2022-12-26T20:08:44.155Z,6.90
2022-12-26T20:11:14.835Z,6.80
2022-12-26T20:13:43.670Z,6.80
2022-12-26T20:16:37.404Z,6.80
2022-12-26T20:19:00.498Z,6.70
2022-12-26T20:21:27.312Z,6.70
2022-12-26T20:23:54.184Z,6.70
2022-12-26T20:26:24.099Z,6.70
2022-12-26T20:28:51.952Z,6.60
2022-12-26T20:31:21.173Z,6.50
2022-12-26T20:33:50.094Z,6.50
2022-12-26T20:36:22.948Z,6.50
2022-12-26T20:38:55.581Z,6.50
2022-12-26T20:41:26.340Z,6.50
2022-12-26T20:43:53.681Z,6.40
2022-12-26T20:46:26.840Z,6.40
2022-12-26T20:48:55.093Z,6.40
2022-12-26T20:51:30.188Z,6.40
2022-12-26T20:54:01.938Z,6.40
2022-12-26T20:56:29.069Z,6.40
2022-12-26T20:58:56.772Z,6.40
2022-12-26T21:01:23.772Z,6.30
2022-12-26T21:03:53.258Z,6.30
2022-12-26T21:06:25.888Z,6.30
2022-12-26T21:08:53.897Z,6.30
2022-12-26T21:11:26.924Z,6.20
2022-12-26T21:13:57.410Z,6.20
2022-12-26T21:16:27.319Z,6.20
2022-12-26T21:18:54.240Z,6.20
2022-12-26T21:21:27.116Z,6.10
2022-12-26T21:23:59.590Z,6.00
2022-12-26T21:26:26.997Z,5.90
2022-12-26T21:28:59.848Z,5.80
2022-12-26T21:31:28.214Z,5.70
2022-12-26T21:33:56.901Z,5.60
2022-12-26T21:36:24.164Z,5.70
2022-12-26T21:38:52.850Z,5.50
2022-12-26T21:41:20.233Z,5.60
2022-12-26T21:43:47.646Z,5.50
2022-12-26T21:46:18.850Z,5.60
2022-12-26T21:48:50.161Z,5.60
2022-12-26T21:51:19.306Z,5.60
2022-12-26T21:53:46.937Z,5.70
2022-12-26T21:56:16.123Z,5.70
2022-12-26T21:59:02.044Z,5.60
2022-12-26T22:01:29.831Z,5.60
2022-12-26T22:04:15.621Z,5.60
2022-12-26T22:06:42.891Z,5.60
2022-12-26T22:09:10.665Z,5.50
2022-12-26T22:11:56.382Z,5.50
2022-12-26T22:14:23.319Z,5.40
2022-12-26T22:16:57.141Z,5.40
2022-12-26T22:19:24.666Z,5.40
2022-12-26T22:21:52.747Z,5.40
2022-12-26T22:24:21.287Z,5.40
2022-12-26T22:26:48.203Z,5.40
2022-12-26T22:29:15.097Z,5.40
2022-12-26T22:31:42.093Z,5.40
2022-12-26T22:34:13.913Z,5.40
2022-12-26T22:36:41.479Z,5.40
2022-12-26T22:39:12.801Z,5.40
2022-12-26T22:41:40.132Z,5.40
2022-12-26T22:44:12.572Z,5.40
2022-12-26T22:46:39.441Z,5.40
2022-12-26T22:49:06.579Z,5.40
2022-12-26T22:51:33.375Z,5.40
2022-12-26T22:54:01.450Z,5.30
2022-12-26T22:56:29.551Z,5.30
2022-12-26T22:58:56.884Z,5.30
2022-12-26T23:01:24.332Z,5.30
2022-12-26T23:03:51.262Z,5.40
2022-12-26T23:06:27.897Z,5.30
2022-12-26T23:08:57.248Z,5.30
2022-12-26T23:11:33.771Z,5.30
2022-12-26T23:14:02.666Z,5.30
2022-12-26T23:16:52.422Z,5.20
2022-12-26T23:19:49.846Z,5.20
2022-12-26T23:22:17.248Z,5.20
2022-12-26T23:24:44.147Z,5.20
2022-12-26T23:27:29.789Z,5.20
2022-12-26T23:30:15.198Z,5.30
2022-12-26T23:32:43.414Z,5.30
2022-12-26T23:35:10.857Z,5.20
2022-12-26T23:37:38.862Z,5.20
2022-12-26T23:40:09.787Z,5.20
2022-12-26T23:42:37.021Z,5.20
2022-12-26T23:45:04.312Z,5.20
2022-12-26T23:47:31.243Z,5.00
2022-12-26T23:49:58.028Z,5.00
2022-12-26T23:52:30.126Z,4.90
2022-12-26T23:54:57.781Z,4.70
2022-12-26T23:57:24.696Z,4.60
2022-12-26T23:59:51.513Z,4.50
